createdAt,value
2023-04-20T00:00:11.179Z,6.35
2023-04-20T00:02:42.160Z,9.18
2023-04-20T00:05:10.642Z,7.53
2023-04-20T00:07:38.655Z,7.28
2023-04-20T00:10:07.062Z,8.15
2023-04-20T00:12:33.967Z,8.98
2023-04-20T00:15:01.223Z,5.70
2023-04-20T00:17:28.149Z,7.82
2023-04-20T00:19:55.535Z,6.60
2023-04-20T00:22:22.377Z,6.20
2023-04-20T00:24:49.535Z,9.75
2023-04-20T00:27:16.537Z,8.23
2023-04-20T00:29:43.576Z,7.43
2023-04-20T00:32:10.927Z,7.88
2023-04-20T00:34:37.865Z,7.30
2023-04-20T00:37:04.902Z,7.15
2023-04-20T00:39:32.000Z,7.30
2023-04-20T00:42:07.208Z,6.97
2023-04-20T00:44:34.906Z,17.52
2023-04-20T00:47:02.219Z,6.22
2023-04-20T00:49:30.949Z,7.65
2023-04-20T00:51:59.670Z,6.45
2023-04-20T00:54:28.789Z,7.20
2023-04-20T00:56:57.988Z,5.13
2023-04-20T00:59:25.647Z,6.65
2023-04-20T01:01:53.226Z,6.22
2023-04-20T01:04:20.747Z,7.10
2023-04-20T01:06:47.708Z,6.15
2023-04-20T01:09:15.056Z,5.95
2023-04-20T01:11:42.130Z,6.72
2023-04-20T01:14:09.111Z,7.13
2023-04-20T01:16:36.763Z,5.93
2023-04-20T01:19:04.801Z,7.78
2023-04-20T01:21:33.359Z,9.43
2023-04-20T01:24:00.416Z,8.48
2023-04-20T01:26:27.369Z,7.18
2023-04-20T01:28:54.470Z,9.95
2023-04-20T01:31:21.850Z,9.52
2023-04-20T01:33:50.922Z,7.13
2023-04-20T01:36:21.319Z,9.02
2023-04-20T01:38:49.362Z,7.60
2023-04-20T01:41:16.504Z,9.57
2023-04-20T01:43:43.409Z,8.20
2023-04-20T01:46:12.861Z,7.78
2023-04-20T01:48:40.527Z,8.30
2023-04-20T01:51:09.623Z,8.80
2023-04-20T01:53:36.537Z,11.07
2023-04-20T01:56:03.614Z,9.00
2023-04-20T01:58:31.448Z,8.00
2023-04-20T02:00:58.549Z,8.57
2023-04-20T02:03:27.839Z,10.32
2023-04-20T02:05:55.272Z,8.02
2023-04-20T02:08:22.626Z,7.97
2023-04-20T02:10:49.651Z,9.18
2023-04-20T02:13:17.066Z,7.05
2023-04-20T02:15:45.772Z,8.82
2023-04-20T02:18:12.942Z,11.27
2023-04-20T02:20:40.143Z,9.93
2023-04-20T02:23:07.466Z,9.52
2023-04-20T02:25:36.298Z,10.00
2023-04-20T02:28:04.938Z,9.05
2023-04-20T02:30:31.869Z,8.32
2023-04-20T02:33:00.008Z,11.93
2023-04-20T02:35:27.058Z,9.77
2023-04-20T02:37:54.045Z,10.20
2023-04-20T02:40:21.072Z,10.48
2023-04-20T02:42:48.112Z,12.85
2023-04-20T02:45:15.190Z,10.75
2023-04-20T02:47:45.021Z,9.60
2023-04-20T02:50:13.356Z,11.82
2023-04-20T02:55:28.502Z,9.95
2023-04-20T02:57:59.618Z,10.57
2023-04-20T03:00:40.650Z,12.23
2023-04-20T03:03:10.163Z,11.38
2023-04-20T03:05:37.231Z,11.07
2023-04-20T03:08:06.933Z,12.10
2023-04-20T03:10:33.990Z,11.52
2023-04-20T03:13:12.224Z,12.35
2023-04-20T03:16:06.457Z,13.23
2023-04-20T03:23:35.880Z,8.20
2023-04-20T03:26:04.324Z,11.20
2023-04-20T03:28:39.819Z,12.13
2023-04-20T03:31:06.701Z,12.18
2023-04-20T03:33:34.199Z,13.00
2023-04-20T03:36:01.939Z,12.77
2023-04-20T03:38:28.866Z,12.18
2023-04-20T03:40:55.774Z,15.13
2023-04-20T03:43:22.745Z,16.05
2023-04-20T03:45:50.214Z,16.23
2023-04-20T03:48:18.545Z,17.38
2023-04-20T03:50:45.910Z,14.88
2023-04-20T03:53:13.035Z,16.13
2023-04-20T03:55:40.755Z,19.42
2023-04-20T03:58:11.821Z,16.98
2023-04-20T04:00:51.493Z,17.25
2023-04-20T04:03:18.888Z,20.02
2023-04-20T04:05:47.369Z,17.88
2023-04-20T04:08:14.306Z,21.02
2023-04-20T04:10:41.188Z,18.60
2023-04-20T04:13:08.270Z,20.85
2023-04-20T04:15:35.133Z,18.58
2023-04-20T04:18:07.952Z,20.77
2023-04-20T04:20:36.204Z,20.15
2023-04-20T04:23:03.344Z,19.45
2023-04-20T04:25:40.409Z,21.70
2023-04-20T04:28:08.969Z,15.95
2023-04-20T04:30:40.535Z,21.23
2023-04-20T04:33:10.136Z,21.23
2023-04-20T04:35:41.450Z,20.58
2023-04-20T04:38:09.613Z,20.75
2023-04-20T04:40:38.077Z,18.40
2023-04-20T04:43:07.626Z,20.33
2023-04-20T04:45:40.932Z,17.88
2023-04-20T04:48:12.145Z,20.10
2023-04-20T04:50:40.112Z,27.33
2023-04-20T04:53:07.750Z,22.00
2023-04-20T04:55:35.033Z,20.58
2023-04-20T04:58:02.848Z,22.40
2023-04-20T05:00:31.395Z,22.90
2023-04-20T05:02:58.744Z,24.40
2023-04-20T05:05:30.377Z,22.35
2023-04-20T05:07:57.521Z,21.98
2023-04-20T05:10:24.666Z,21.52
2023-04-20T05:12:52.373Z,23.30
2023-04-20T05:15:19.679Z,22.27
2023-04-20T05:17:49.480Z,22.23
2023-04-20T05:20:16.785Z,23.83
2023-04-20T05:22:43.794Z,20.83
2023-04-20T05:25:13.797Z,19.23
2023-04-20T05:27:41.148Z,18.20
2023-04-20T05:30:19.649Z,20.50
2023-04-20T05:32:51.507Z,21.20
2023-04-20T05:35:19.841Z,20.52
2023-04-20T05:37:47.882Z,18.63
2023-04-20T05:40:15.741Z,21.83
2023-04-20T05:42:42.796Z,16.50
2023-04-20T05:45:10.876Z,20.73
2023-04-20T05:47:37.939Z,19.92
2023-04-20T05:50:06.476Z,22.58
2023-04-20T05:52:33.412Z,18.65
2023-04-20T05:55:00.491Z,16.58
2023-04-20T05:57:27.556Z,18.50
2023-04-20T05:59:56.007Z,20.17
2023-04-20T06:02:23.294Z,19.05
2023-04-20T06:04:50.442Z,18.13
2023-04-20T06:07:17.675Z,17.85
2023-04-20T06:09:44.655Z,21.10
2023-04-20T06:12:12.018Z,17.00
2023-04-20T06:14:39.232Z,19.50
2023-04-20T06:17:06.216Z,19.10
2023-04-20T06:19:33.345Z,17.85
2023-04-20T06:22:01.282Z,18.33
2023-04-20T06:24:28.597Z,20.08
2023-04-20T06:26:55.525Z,17.33
2023-04-20T06:29:22.447Z,18.17
2023-04-20T06:31:49.524Z,17.77
2023-04-20T06:34:16.581Z,19.23
2023-04-20T06:36:44.017Z,19.10
2023-04-20T06:39:13.879Z,20.25
2023-04-20T06:41:41.007Z,17.42
2023-04-20T06:44:08.045Z,17.92
2023-04-20T06:46:35.359Z,19.13
2023-04-20T06:49:03.077Z,22.58
2023-04-20T06:51:32.158Z,19.17
2023-04-20T06:53:59.241Z,24.25
2023-04-20T06:56:26.187Z,16.35
2023-04-20T06:58:54.105Z,16.58
2023-04-20T07:01:21.839Z,19.02
2023-04-20T07:03:49.072Z,17.58
2023-04-20T07:06:17.000Z,17.85
2023-04-20T07:08:44.028Z,17.70
2023-04-20T07:11:11.262Z,19.88
2023-04-20T07:13:45.097Z,18.93
2023-04-20T07:16:12.101Z,17.75
2023-04-20T07:18:39.117Z,24.30
2023-04-20T07:21:06.232Z,20.30
2023-04-20T07:23:33.275Z,20.38
2023-04-20T07:26:00.385Z,21.60
2023-04-20T07:28:27.383Z,19.63
2023-04-20T07:30:54.346Z,18.55
2023-04-20T07:33:21.344Z,18.42
2023-04-20T07:35:48.443Z,18.38
2023-04-20T07:38:16.178Z,15.98
2023-04-20T07:40:43.052Z,18.85
2023-04-20T07:43:10.076Z,15.45
2023-04-20T07:45:41.179Z,17.67
2023-04-20T07:48:12.632Z,16.90
2023-04-20T07:50:39.984Z,16.33
2023-04-20T07:53:07.190Z,15.75
2023-04-20T07:55:34.308Z,17.08
2023-04-20T07:58:01.202Z,17.92
2023-04-20T08:00:28.394Z,16.25
2023-04-20T08:02:55.704Z,17.80
2023-04-20T08:05:24.413Z,18.00
2023-04-20T08:07:51.556Z,15.85
2023-04-20T08:10:18.903Z,19.05
2023-04-20T08:12:46.987Z,16.30
2023-04-20T08:15:14.357Z,16.77
2023-04-20T08:17:41.814Z,16.80
2023-04-20T08:20:09.168Z,17.48
2023-04-20T08:22:36.385Z,19.17
2023-04-20T08:25:03.823Z,18.30
2023-04-20T08:27:31.079Z,15.88
2023-04-20T08:29:58.288Z,16.83
2023-04-20T08:32:27.077Z,21.63
2023-04-20T08:34:55.394Z,14.77
2023-04-20T08:37:22.438Z,12.82
2023-04-20T08:39:49.511Z,16.40
2023-04-20T08:42:18.692Z,15.50
2023-04-20T08:44:45.882Z,13.75
2023-04-20T08:47:14.332Z,18.23
2023-04-20T08:49:41.946Z,15.32
2023-04-20T08:52:11.168Z,14.95
2023-04-20T08:54:49.280Z,16.10
2023-04-20T08:57:23.312Z,14.60
2023-04-20T08:59:52.033Z,14.77
2023-04-20T09:02:21.152Z,16.17
2023-04-20T09:04:50.593Z,15.10
2023-04-20T09:07:21.762Z,15.43
2023-04-20T09:10:00.984Z,16.83
2023-04-20T09:12:29.179Z,16.95
2023-04-20T09:14:56.983Z,16.85
2023-04-20T09:17:37.964Z,14.05
2023-04-20T09:20:07.422Z,14.38
2023-04-20T09:22:37.710Z,14.68
2023-04-20T09:25:17.062Z,14.63
2023-04-20T09:27:55.308Z,16.08
2023-04-20T09:30:22.823Z,15.45
2023-04-20T09:33:01.357Z,13.93
2023-04-20T09:35:28.457Z,14.88
2023-04-20T09:37:55.734Z,14.95
2023-04-20T09:40:27.799Z,15.88
2023-04-20T09:42:57.726Z,15.02
2023-04-20T09:45:26.076Z,15.75
2023-04-20T09:47:54.051Z,17.45
2023-04-20T09:50:29.199Z,18.50
2023-04-20T09:53:04.750Z,14.73
2023-04-20T09:55:34.899Z,13.35
2023-04-20T09:58:05.593Z,12.57
2023-04-20T10:00:32.765Z,13.27
2023-04-20T10:02:59.868Z,12.98
2023-04-20T10:05:39.478Z,15.65
2023-04-20T10:08:07.033Z,12.32
2023-04-20T10:11:03.542Z,11.68
2023-04-20T10:13:33.967Z,11.52
2023-04-20T10:16:01.374Z,9.32
2023-04-20T10:18:28.351Z,11.27
2023-04-20T10:21:11.562Z,11.77
2023-04-20T10:23:52.576Z,9.45
2023-04-20T10:26:19.959Z,12.25
2023-04-20T10:28:47.195Z,8.82
2023-04-20T10:31:15.570Z,9.48
2023-04-20T10:33:56.088Z,7.47
2023-04-20T10:36:36.711Z,7.93
2023-04-20T10:39:22.083Z,8.00
2023-04-20T10:42:01.177Z,8.25
2023-04-20T10:44:28.300Z,6.40
2023-04-20T10:46:56.542Z,7.78
2023-04-20T10:49:29.394Z,8.93
2023-04-20T10:51:56.683Z,7.65
2023-04-20T10:54:23.717Z,6.93
2023-04-20T10:56:52.506Z,8.15
2023-04-20T10:59:23.430Z,8.82
2023-04-20T11:01:52.152Z,7.95
2023-04-20T11:04:29.877Z,7.38
2023-04-20T11:07:07.237Z,7.35
2023-04-20T11:09:36.392Z,7.70
2023-04-20T11:12:11.913Z,9.85
2023-04-20T11:14:55.133Z,7.63
2023-04-20T11:17:33.646Z,6.97
2023-04-20T11:20:12.684Z,10.68
2023-04-20T11:22:41.528Z,8.65
2023-04-20T11:25:11.531Z,7.22
2023-04-20T11:27:39.644Z,7.88
2023-04-20T11:30:09.199Z,9.85
2023-04-20T11:32:36.678Z,8.80
2023-04-20T11:35:10.831Z,10.10
2023-04-20T11:37:51.896Z,8.05
2023-04-20T11:40:19.356Z,11.23
2023-04-20T11:42:46.477Z,10.77
2023-04-20T11:45:13.432Z,11.65
2023-04-20T11:47:41.182Z,9.98
2023-04-20T11:50:10.506Z,11.00
2023-04-20T11:52:37.581Z,12.70
2023-04-20T11:55:05.324Z,10.63
2023-04-20T11:57:32.765Z,12.63
2023-04-20T11:59:59.676Z,10.02
2023-04-20T12:02:26.958Z,10.65
2023-04-20T12:04:54.061Z,10.80
2023-04-20T12:07:22.717Z,10.88
2023-04-20T12:09:50.055Z,11.45
2023-04-20T12:12:17.023Z,11.20
2023-04-20T12:14:44.116Z,10.45
2023-04-20T12:17:11.176Z,9.75
2023-04-20T12:19:38.177Z,9.73
2023-04-20T12:22:05.159Z,11.75
2023-04-20T12:24:32.014Z,11.25
2023-04-20T12:26:59.571Z,11.60
2023-04-20T12:29:26.507Z,9.32
2023-04-20T12:31:53.735Z,10.88
2023-04-20T12:34:21.240Z,9.60
2023-04-20T12:36:48.790Z,10.45
2023-04-20T12:39:16.053Z,10.18
2023-04-20T12:41:42.989Z,11.20
2023-04-20T12:44:11.602Z,13.25
2023-04-20T12:46:38.628Z,10.25
2023-04-20T12:49:06.148Z,8.57
2023-04-20T12:51:33.384Z,9.93
2023-04-20T12:54:00.786Z,9.30
2023-04-20T12:56:27.867Z,11.70
2023-04-20T12:58:55.108Z,11.00
2023-04-20T13:01:22.226Z,12.77
2023-04-20T13:03:52.438Z,12.43
2023-04-20T13:06:19.572Z,9.93
2023-04-20T13:08:46.687Z,10.13
2023-04-20T13:11:16.127Z,10.40
2023-04-20T13:13:43.083Z,9.93
2023-04-20T13:16:10.139Z,12.10
2023-04-20T13:18:37.576Z,10.07
2023-04-20T13:21:04.567Z,9.32
2023-04-20T13:23:31.685Z,12.32
2023-04-20T13:26:01.516Z,9.52
2023-04-20T13:28:28.866Z,10.13
2023-04-20T13:30:57.357Z,10.10
2023-04-20T13:33:24.770Z,11.60
2023-04-20T13:35:52.073Z,11.32
2023-04-20T13:38:19.215Z,10.73
2023-04-20T13:40:47.096Z,10.52
2023-04-20T13:43:14.379Z,10.55
2023-04-20T13:45:41.413Z,10.63
2023-04-20T13:48:08.601Z,11.45
2023-04-20T13:50:35.681Z,11.45
2023-04-20T13:53:03.285Z,10.73
2023-04-20T13:55:31.406Z,10.30
2023-04-20T13:57:58.511Z,11.80
2023-04-20T14:00:26.096Z,9.65
2023-04-20T14:02:53.328Z,10.00
2023-04-20T14:05:20.653Z,11.38
2023-04-20T14:07:48.011Z,10.70
2023-04-20T14:10:15.486Z,8.43
2023-04-20T14:12:42.373Z,8.90
2023-04-20T14:15:10.246Z,13.07
2023-04-20T14:17:37.357Z,11.55
2023-04-20T14:20:05.556Z,9.45
2023-04-20T14:22:35.877Z,10.50
2023-04-20T14:25:05.057Z,11.07
2023-04-20T14:27:32.704Z,10.80
2023-04-20T14:29:59.800Z,7.80
2023-04-20T14:32:27.265Z,8.48
2023-04-20T14:34:54.216Z,8.45
2023-04-20T14:37:21.326Z,10.88
2023-04-20T14:39:48.329Z,7.00
2023-04-20T14:42:15.740Z,9.13
2023-04-20T14:44:42.599Z,7.90
2023-04-20T14:47:09.623Z,9.93
2023-04-20T14:49:36.596Z,8.20
2023-04-20T14:52:03.806Z,7.32
2023-04-20T14:54:30.926Z,7.43
2023-04-20T14:56:58.379Z,6.72
2023-04-20T14:59:26.957Z,17.98
2023-04-20T15:02:02.211Z,7.65
2023-04-20T15:06:57.722Z,8.63
2023-04-20T15:09:25.336Z,7.93
2023-04-20T15:11:52.452Z,9.60
2023-04-20T15:14:20.311Z,8.50
2023-04-20T15:16:47.567Z,8.18
2023-04-20T15:19:14.581Z,6.72
2023-04-20T15:21:42.661Z,7.30
2023-04-20T15:24:10.551Z,7.85
2023-04-20T15:26:37.623Z,7.45
2023-04-20T15:29:04.628Z,11.00
2023-04-20T15:31:31.682Z,7.88
2023-04-20T15:34:00.729Z,7.97
2023-04-20T15:36:27.777Z,6.95
2023-04-20T15:38:57.557Z,7.13
2023-04-20T15:41:25.288Z,7.25
2023-04-20T15:43:52.258Z,6.18
2023-04-20T15:46:23.697Z,11.90
2023-04-20T15:48:51.073Z,7.95
2023-04-20T15:51:20.078Z,5.63
2023-04-20T15:53:50.424Z,12.65
2023-04-20T15:56:22.290Z,10.10
2023-04-20T15:58:50.492Z,6.82
2023-04-20T16:01:21.226Z,6.55
2023-04-20T16:03:50.257Z,11.13
2023-04-20T16:06:17.412Z,7.68
2023-04-20T16:08:45.444Z,7.90
2023-04-20T16:11:12.492Z,7.72
2023-04-20T16:13:39.559Z,8.30
2023-04-20T16:16:07.028Z,7.20
2023-04-20T16:18:34.046Z,7.60
2023-04-20T16:21:01.268Z,7.10
2023-04-20T16:23:28.939Z,8.75
2023-04-20T16:25:55.860Z,8.23
2023-04-20T16:28:22.892Z,9.23
2023-04-20T16:30:50.000Z,6.85
2023-04-20T16:33:17.638Z,8.77
2023-04-20T16:35:44.524Z,11.13
2023-04-20T16:38:11.483Z,9.10
2023-04-20T16:40:38.813Z,8.40
2023-04-20T16:43:05.937Z,5.95
2023-04-20T16:45:33.898Z,8.32
2023-04-20T16:48:01.290Z,6.38
2023-04-20T16:50:28.477Z,11.63
2023-04-20T16:52:55.461Z,7.35
2023-04-20T16:55:22.775Z,10.57
2023-04-20T16:57:49.883Z,10.10
2023-04-20T17:00:17.693Z,6.93
2023-04-20T17:02:45.056Z,6.72
2023-04-20T17:05:12.114Z,8.05
2023-04-20T17:07:39.051Z,6.88
2023-04-20T17:10:08.931Z,6.80
2023-04-20T17:12:36.106Z,8.10
2023-04-20T17:15:03.590Z,7.50
2023-04-20T17:17:30.750Z,7.57
2023-04-20T17:19:57.995Z,8.30
2023-04-20T17:22:26.165Z,8.50
2023-04-20T17:24:54.199Z,11.35
2023-04-20T17:27:24.219Z,12.65
2023-04-20T17:29:51.598Z,9.35
2023-04-20T17:32:18.722Z,13.05
2023-04-20T17:34:48.222Z,7.93
2023-04-20T17:37:15.861Z,9.25
2023-04-20T17:39:43.165Z,8.05
2023-04-20T17:42:10.847Z,11.05
2023-04-20T17:44:38.503Z,9.00
2023-04-20T17:47:06.739Z,10.30
2023-04-20T17:49:34.912Z,11.10
2023-04-20T17:52:02.690Z,10.10
2023-04-20T17:54:29.831Z,10.57
2023-04-20T17:56:58.070Z,7.78
2023-04-20T17:59:25.078Z,9.45
2023-04-20T18:01:53.013Z,11.85
2023-04-20T18:04:21.117Z,8.65
2023-04-20T18:06:49.482Z,7.05
2023-04-20T18:09:17.824Z,8.00
2023-04-20T18:11:44.861Z,10.70
2023-04-20T18:14:12.211Z,8.45
2023-04-20T18:16:39.090Z,10.77
2023-04-20T18:19:05.975Z,12.23
2023-04-20T18:21:34.679Z,11.38
2023-04-20T18:24:01.907Z,8.70
2023-04-20T18:26:28.860Z,10.20
2023-04-20T18:28:55.726Z,9.45
2023-04-20T18:31:22.804Z,9.68
2023-04-20T18:33:49.790Z,17.42
2023-04-20T18:36:16.882Z,9.82
2023-04-20T18:38:43.803Z,10.50
2023-04-20T18:41:11.150Z,8.90
2023-04-20T18:43:38.748Z,10.40
2023-04-20T18:46:06.230Z,13.45
2023-04-20T18:48:33.502Z,12.52
2023-04-20T18:51:01.732Z,11.90
2023-04-20T18:53:29.612Z,9.05
2023-04-20T18:55:59.043Z,10.05
2023-04-20T18:58:27.894Z,9.93
2023-04-20T19:00:55.376Z,13.48
2023-04-20T19:03:22.711Z,9.98
2023-04-20T19:05:49.806Z,12.77
2023-04-20T19:08:16.766Z,12.40
2023-04-20T19:10:43.773Z,9.27
2023-04-20T19:13:10.882Z,11.07
2023-04-20T19:15:40.446Z,11.88
2023-04-20T19:18:07.462Z,18.58
2023-04-20T19:20:35.850Z,10.48
2023-04-20T19:23:03.210Z,9.50
2023-04-20T19:25:30.881Z,12.75
2023-04-20T19:27:58.332Z,11.70
2023-04-20T19:30:25.402Z,12.13
2023-04-20T19:32:52.411Z,12.48
2023-04-20T19:35:19.485Z,11.27
2023-04-20T19:37:46.814Z,10.48
2023-04-20T19:40:14.045Z,13.45
2023-04-20T19:42:42.329Z,13.52
2023-04-20T19:45:09.748Z,13.30
2023-04-20T19:47:36.970Z,10.15
2023-04-20T19:50:04.464Z,10.00
2023-04-20T19:52:34.434Z,10.02
2023-04-20T19:55:03.823Z,9.70
2023-04-20T19:57:31.123Z,18.13
2023-04-20T19:59:59.518Z,10.23
2023-04-20T20:02:26.783Z,9.70
2023-04-20T20:04:54.643Z,12.00
2023-04-20T20:07:21.701Z,12.63
2023-04-20T20:09:49.233Z,9.27
2023-04-20T20:12:16.404Z,13.10
2023-04-20T20:14:43.286Z,9.68
2023-04-20T20:17:10.617Z,9.60
2023-04-20T20:19:37.516Z,12.82
2023-04-20T20:22:04.613Z,11.35
2023-04-20T20:24:31.939Z,10.88
2023-04-20T20:26:59.063Z,10.63
2023-04-20T20:29:26.235Z,8.15
2023-04-20T20:31:53.258Z,7.80
2023-04-20T20:34:20.240Z,11.05
2023-04-20T20:36:48.373Z,14.60
2023-04-20T20:39:15.958Z,7.78
2023-04-20T20:41:42.963Z,9.30
2023-04-20T20:44:10.492Z,9.85
2023-04-20T20:46:41.021Z,10.10
2023-04-20T20:49:07.955Z,9.50
2023-04-20T20:51:34.895Z,16.33
2023-04-20T20:54:01.828Z,10.25
2023-04-20T20:56:28.786Z,8.30
2023-04-20T20:58:55.628Z,10.20
2023-04-20T21:01:22.693Z,11.02
2023-04-20T21:03:50.022Z,9.10
2023-04-20T21:06:18.042Z,9.10
2023-04-20T21:08:45.297Z,9.15
2023-04-20T21:11:12.318Z,9.23
2023-04-20T21:13:39.385Z,10.00
2023-04-20T21:16:06.527Z,12.20
2023-04-20T21:18:33.894Z,10.45
2023-04-20T21:21:00.974Z,11.65
2023-04-20T21:23:28.250Z,13.32
2023-04-20T21:25:55.433Z,7.72
2023-04-20T21:28:22.402Z,12.02
2023-04-20T21:30:49.551Z,11.68
2023-04-20T21:33:16.516Z,9.65
2023-04-20T21:35:43.517Z,12.60
2023-04-20T21:38:10.715Z,13.07
2023-04-20T21:40:37.620Z,10.63
2023-04-20T21:43:04.488Z,9.35
2023-04-20T21:45:31.527Z,7.57
2023-04-20T21:47:58.410Z,10.27
2023-04-20T21:50:27.079Z,8.40
2023-04-20T21:52:54.990Z,7.90
2023-04-20T21:55:22.129Z,8.75
2023-04-20T21:57:49.145Z,9.23
2023-04-20T22:00:18.055Z,12.18
2023-04-20T22:02:45.722Z,10.18
2023-04-20T22:05:13.554Z,12.63
2023-04-20T22:07:40.745Z,15.65
2023-04-20T22:10:08.816Z,11.23
2023-04-20T22:12:40.553Z,9.43
2023-04-20T22:15:13.562Z,12.70
2023-04-20T22:17:41.595Z,9.63
2023-04-20T22:20:10.868Z,13.68
2023-04-20T22:22:39.017Z,9.55
2023-04-20T22:25:08.876Z,11.80
2023-04-20T22:27:37.790Z,10.68
2023-04-20T22:30:06.469Z,8.13
2023-04-20T22:32:33.615Z,11.55
2023-04-20T22:35:00.634Z,15.95
2023-04-20T22:37:27.706Z,9.20
2023-04-20T22:39:54.737Z,11.70
2023-04-20T22:42:21.757Z,10.32
2023-04-20T22:44:48.684Z,12.02
2023-04-20T22:47:16.076Z,12.98
2023-04-20T22:49:43.022Z,10.57
2023-04-20T22:52:10.820Z,14.10
2023-04-20T22:54:38.221Z,9.82
2023-04-20T22:57:05.463Z,9.73
2023-04-20T22:59:32.354Z,8.45
2023-04-20T23:01:59.662Z,10.13
2023-04-20T23:04:26.697Z,14.45
2023-04-20T23:06:56.140Z,11.23
2023-04-20T23:09:23.702Z,10.45
2023-04-20T23:11:53.723Z,9.93
2023-04-20T23:14:22.413Z,10.55
2023-04-20T23:16:49.893Z,11.82
2023-04-20T23:19:17.287Z,9.00
2023-04-20T23:21:44.428Z,14.48
2023-04-20T23:24:11.678Z,7.13
2023-04-20T23:26:38.644Z,13.32
2023-04-20T23:29:05.921Z,14.05
2023-04-20T23:31:32.893Z,16.23
2023-04-20T23:34:00.139Z,12.52
2023-04-20T23:36:27.150Z,15.43
2023-04-20T23:38:54.051Z,11.95
2023-04-20T23:41:21.049Z,13.35
2023-04-20T23:43:48.105Z,9.85
2023-04-20T23:46:15.430Z,7.97
2023-04-20T23:48:42.736Z,13.88
2023-04-20T23:51:09.769Z,10.43
2023-04-20T23:53:39.125Z,9.90
2023-04-20T23:56:06.996Z,12.68
2023-04-20T23:58:33.935Z,12.70
